Time;durP1;ratioP1;P1;durP2;ratioP2;P2;SDS_P1;SDS_P2;PMS_P1;PMS_P2;Temp;Humidity;BMP_temperature;BMP_pressure;BME280_temperature;BME280_humidity;BME280_pressure;Samples;Min_cycle;Max_cycle;Signal;HPM_P1;HPM_P2
2023/12/27 00:00:47;;;;;;;9.73;5.03;;;-0.50;99.90;;;;;;5016495;28;20087;-84
2023/12/27 00:03:13;;;;;;;8.35;5.00;;;-0.50;99.90;;;;;;5016902;28;20037;-83
2023/12/27 00:05:38;;;;;;;8.23;5.35;;;-0.50;99.90;;;;;;5033405;28;20474;-83
2023/12/27 00:08:04;;;;;;;7.53;4.40;;;-0.50;99.90;;;;;;5030872;28;20034;-83
2023/12/27 00:10:30;;;;;;;8.88;5.20;;;-0.50;99.90;;;;;;5000352;28;20033;-83
2023/12/27 00:12:55;;;;;;;7.55;4.15;;;-0.50;99.90;;;;;;5016611;28;20033;-83
2023/12/27 00:15:21;;;;;;;6.25;3.97;;;-0.50;99.90;;;;;;5036183;28;20060;-83
2023/12/27 00:17:46;;;;;;;9.65;4.80;;;-0.50;99.90;;;;;;5052806;28;20025;-83
2023/12/27 00:20:12;;;;;;;6.90;4.65;;;-0.60;99.90;;;;;;5052688;28;20033;-83
2023/12/27 00:22:38;;;;;;;6.93;4.13;;;-0.50;99.90;;;;;;5036336;28;20112;-83
2023/12/27 00:25:04;;;;;;;7.10;4.32;;;-0.50;99.90;;;;;;5036050;28;20093;-83
2023/12/27 00:27:29;;;;;;;7.20;4.45;;;-0.50;99.90;;;;;;5052212;28;20021;-83
2023/12/27 00:29:55;;;;;;;9.38;4.32;;;-0.50;99.90;;;;;;5035722;28;20029;-83
2023/12/27 00:32:21;;;;;;;8.48;4.30;;;-0.50;99.90;;;;;;5052493;28;20056;-83
2023/12/27 00:34:49;;;;;;;8.60;4.50;;;-0.50;99.90;;;;;;5036290;28;20112;-83
2023/12/27 00:37:15;;;;;;;6.13;4.10;;;-0.50;99.90;;;;;;5052593;28;20050;-83
2023/12/27 00:39:41;;;;;;;7.18;4.50;;;-0.50;99.90;;;;;;5036827;28;20120;-83
2023/12/27 00:42:06;;;;;;;8.13;4.78;;;-0.50;99.90;;;;;;5035415;28;20098;-83
2023/12/27 00:44:32;;;;;;;7.35;4.65;;;-0.50;99.90;;;;;;5036126;28;20064;-83
2023/12/27 00:46:58;;;;;;;8.32;4.55;;;-0.50;99.90;;;;;;5019268;28;20029;-83
2023/12/27 00:49:24;;;;;;;7.55;4.63;;;-0.60;99.90;;;;;;5035496;28;20029;-83
2023/12/27 00:51:49;;;;;;;7.72;4.95;;;-0.70;99.90;;;;;;5051412;28;20029;-83
2023/12/27 00:54:16;;;;;;;8.15;5.28;;;-0.80;99.90;;;;;;5035829;28;20400;-83
2023/12/27 00:56:41;;;;;;;7.13;4.30;;;-0.80;99.90;;;;;;5052635;28;20096;-83
2023/12/27 00:59:07;;;;;;;7.53;4.97;;;-0.80;99.90;;;;;;5052090;28;20059;-83
2023/12/27 01:01:33;;;;;;;8.40;4.90;;;-0.90;99.90;;;;;;5035467;28;20060;-83
2023/12/27 01:03:58;;;;;;;7.47;4.45;;;-0.80;99.90;;;;;;5035345;28;20032;-83
2023/12/27 01:06:24;;;;;;;7.47;4.40;;;-0.80;99.90;;;;;;5052186;28;20507;-83
2023/12/27 01:08:50;;;;;;;5.75;3.58;;;-0.80;99.90;;;;;;5051343;28;20037;-83
2023/12/27 01:11:15;;;;;;;6.07;3.83;;;-0.80;99.90;;;;;;5031898;28;20029;-83
2023/12/27 01:13:41;;;;;;;6.40;3.60;;;-0.90;99.90;;;;;;5015591;28;20029;-83
2023/12/27 01:16:07;;;;;;;6.28;3.70;;;-0.80;99.90;;;;;;5031773;28;20094;-83
2023/12/27 01:18:33;;;;;;;9.43;4.85;;;-0.80;99.90;;;;;;5033134;28;20160;-83
2023/12/27 01:20:59;;;;;;;10.98;5.75;;;-0.80;99.90;;;;;;5031567;28;20029;-83
2023/12/27 01:23:25;;;;;;;12.23;6.63;;;-0.80;99.90;;;;;;5051799;28;20021;-83
2023/12/27 01:25:51;;;;;;;12.88;6.68;;;-0.70;99.90;;;;;;5048281;28;20025;-83
2023/12/27 01:28:17;;;;;;;8.98;5.38;;;-0.80;99.90;;;;;;5034223;28;20477;-83
2023/12/27 01:30:42;;;;;;;9.02;4.50;;;-0.70;99.90;;;;;;5051774;28;20032;-83
2023/12/27 01:33:08;;;;;;;8.13;3.92;;;-0.70;99.90;;;;;;5035202;28;20482;-83
2023/12/27 01:35:34;;;;;;;5.63;3.10;;;-0.70;99.90;;;;;;5018635;28;20265;-83
2023/12/27 01:37:59;;;;;;;5.13;3.25;;;-0.70;99.90;;;;;;5051592;28;20021;-83
2023/12/27 01:40:25;;;;;;;6.65;3.38;;;-0.60;99.90;;;;;;5018354;28;20025;-83
2023/12/27 01:42:51;;;;;;;5.57;3.10;;;-0.70;99.90;;;;;;5052856;28;20432;-83
2023/12/27 01:45:16;;;;;;;8.75;3.60;;;-0.70;99.90;;;;;;5018153;28;20036;-83
2023/12/27 01:47:42;;;;;;;7.88;4.07;;;-0.70;99.90;;;;;;5034761;28;20091;-83
2023/12/27 01:50:09;;;;;;;6.55;3.90;;;-0.70;99.90;;;;;;5018544;28;20055;-83
2023/12/27 01:52:40;;;;;;;7.93;4.32;;;-0.80;99.90;;;;;;5035027;28;20029;-83
2023/12/27 01:55:09;;;;;;;7.28;4.30;;;-0.80;99.90;;;;;;5051205;28;20029;-83
2023/12/27 01:57:38;;;;;;;7.43;4.30;;;-0.80;99.90;;;;;;5067786;28;20021;-83
2023/12/27 02:00:05;;;;;;;6.57;4.07;;;-0.80;99.90;;;;;;5035072;28;20112;-83
2023/12/27 02:02:33;;;;;;;6.72;4.28;;;-0.80;99.90;;;;;;5052356;28;20466;-83
2023/12/27 02:04:59;;;;;;;6.40;3.97;;;-0.80;99.90;;;;;;5034928;28;20037;-83
2023/12/27 02:07:35;;;;;;;6.05;3.90;;;-0.80;99.90;;;;;;5050969;28;20477;-83
2023/12/27 02:10:03;;;;;;;8.30;4.30;;;-0.80;99.90;;;;;;5055035;28;20477;-83
2023/12/27 02:12:30;;;;;;;7.90;4.68;;;-0.70;99.90;;;;;;5055510;28;20025;-83
2023/12/27 02:14:57;;;;;;;10.52;6.30;;;-0.70;99.90;;;;;;5038982;28;20033;-83
2023/12/27 02:17:28;;;;;;;8.38;4.53;;;-0.70;99.90;;;;;;5055447;28;20060;-84
2023/12/27 02:19:55;;;;;;;7.90;4.78;;;-0.70;99.90;;;;;;5055024;28;20424;-84
2023/12/27 02:22:23;;;;;;;6.47;3.90;;;-0.80;99.90;;;;;;5020147;28;20021;-83
2023/12/27 02:24:53;;;;;;;7.65;3.67;;;-0.80;99.90;;;;;;5035908;28;20033;-83
2023/12/27 02:27:25;;;;;;;6.85;4.30;;;-0.80;99.90;;;;;;5035162;28;20021;-83
2023/12/27 02:29:52;;;;;;;7.45;4.15;;;-0.80;99.90;;;;;;5035466;28;20033;-83
2023/12/27 02:32:39;;;;;;;6.43;3.35;;;-0.80;99.90;;;;;;5051855;28;20029;-83
2023/12/27 02:35:08;;;;;;;5.80;2.78;;;-0.80;99.90;;;;;;5054414;28;20071;-83
2023/12/27 02:37:35;;;;;;;7.38;3.33;;;-0.70;99.90;;;;;;5055667;28;20044;-83
2023/12/27 02:40:03;;;;;;;5.80;3.35;;;-0.70;99.90;;;;;;5038556;28;20029;-83
2023/12/27 02:42:29;;;;;;;5.07;3.10;;;-0.70;99.90;;;;;;5038782;28;20021;-83
2023/12/27 02:44:55;;;;;;;6.43;3.13;;;-0.70;99.90;;;;;;5038429;28;20028;-83
2023/12/27 02:47:21;;;;;;;5.00;3.10;;;-0.70;99.90;;;;;;5054503;28;20421;-83
2023/12/27 02:49:47;;;;;;;5.60;3.40;;;-0.60;99.90;;;;;;5038403;28;20028;-83
2023/12/27 02:52:12;;;;;;;5.00;3.33;;;-0.60;99.90;;;;;;5034172;28;20430;-84
2023/12/27 02:54:38;;;;;;;5.57;3.75;;;-0.70;99.90;;;;;;5054437;28;20027;-83
2023/12/27 02:57:04;;;;;;;6.05;3.40;;;-0.70;99.90;;;;;;5026070;28;20439;-83
2023/12/27 02:59:29;;;;;;;6.20;3.60;;;-0.70;99.90;;;;;;5075242;28;20423;-83
2023/12/27 03:01:55;;;;;;;5.80;3.60;;;-0.70;99.90;;;;;;5076021;28;20066;-83
2023/12/27 03:04:21;;;;;;;8.05;3.58;;;-0.60;99.90;;;;;;5041255;28;20391;-83
2023/12/27 03:06:46;;;;;;;6.10;3.47;;;-0.60;99.90;;;;;;5064549;28;20028;-83
2023/12/27 03:09:12;;;;;;;6.70;3.38;;;-0.70;99.90;;;;;;5053791;28;20037;-83
2023/12/27 03:11:38;;;;;;;7.57;4.22;;;-0.60;99.90;;;;;;5055302;28;20469;-83
2023/12/27 03:14:04;;;;;;;9.98;5.30;;;-0.60;99.90;;;;;;5037601;28;20033;-83
2023/12/27 03:16:30;;;;;;;8.70;4.72;;;-0.60;99.90;;;;;;5053791;28;20389;-83
2023/12/27 03:18:57;;;;;;;8.60;4.93;;;-0.60;99.90;;;;;;5020439;28;20064;-83
2023/12/27 03:21:22;;;;;;;10.73;5.03;;;-0.60;99.90;;;;;;5053859;28;20028;-83
2023/12/27 03:23:48;;;;;;;8.13;5.35;;;-0.50;99.90;;;;;;5037203;28;20037;-83
2023/12/27 03:26:14;;;;;;;7.97;4.20;;;-0.50;99.90;;;;;;5036991;28;20036;-83
2023/12/27 03:28:40;;;;;;;8.00;4.38;;;-0.50;99.90;;;;;;5053858;28;20029;-83
2023/12/27 03:31:06;;;;;;;7.05;4.10;;;-0.50;99.90;;;;;;5054000;28;20047;-83
2023/12/27 03:33:33;;;;;;;6.65;4.03;;;-0.50;99.90;;;;;;5054610;28;20446;-83
2023/12/27 03:35:58;;;;;;;5.90;3.55;;;-0.50;99.90;;;;;;5055003;28;20033;-83
2023/12/27 03:38:24;;;;;;;6.38;3.83;;;-0.50;99.90;;;;;;5054006;28;20029;-83
2023/12/27 03:40:50;;;;;;;6.85;3.53;;;-0.50;99.90;;;;;;5020813;28;20024;-83
2023/12/27 03:43:16;;;;;;;5.82;3.60;;;-0.50;99.90;;;;;;5053615;28;20027;-83
2023/12/27 03:45:42;;;;;;;5.13;3.40;;;-0.50;99.90;;;;;;5037076;28;20035;-83
2023/12/27 03:48:07;;;;;;;8.43;3.70;;;-0.50;99.90;;;;;;5053124;28;20029;-83
2023/12/27 03:50:34;;;;;;;7.07;3.50;;;-0.50;99.90;;;;;;5036517;28;20032;-83
2023/12/27 03:52:59;;;;;;;7.38;3.75;;;-0.50;99.90;;;;;;5036586;28;20079;-83
2023/12/27 03:55:26;;;;;;;7.53;3.25;;;-0.50;99.90;;;;;;5054550;28;20481;-83
2023/12/27 03:57:52;;;;;;;7.80;4.07;;;-0.50;99.90;;;;;;5054481;28;20021;-83
2023/12/27 04:00:19;;;;;;;4.90;3.20;;;-0.50;99.90;;;;;;5053330;28;20021;-83
2023/12/27 04:02:46;;;;;;;5.95;3.40;;;-0.50;99.90;;;;;;5052841;28;20108;-83
2023/12/27 04:05:15;;;;;;;6.43;3.58;;;-0.50;99.90;;;;;;5054334;28;20437;-83
2023/12/27 04:07:41;;;;;;;6.90;3.97;;;-0.50;99.90;;;;;;5052617;28;20061;-83
2023/12/27 04:10:07;;;;;;;6.30;3.45;;;-0.50;99.90;;;;;;5036163;28;20496;-83
2023/12/27 04:12:33;;;;;;;5.18;3.13;;;-0.50;99.90;;;;;;5053372;28;20481;-83
2023/12/27 04:14:58;;;;;;;6.35;3.20;;;-0.50;99.90;;;;;;5023666;28;20034;-83
2023/12/27 04:17:25;;;;;;;5.40;3.05;;;-0.50;99.90;;;;;;5000070;28;20544;-83
2023/12/27 04:19:52;;;;;;;4.50;3.28;;;-0.50;99.90;;;;;;5052999;28;20082;-83
2023/12/27 04:22:17;;;;;;;5.72;3.13;;;-0.50;99.90;;;;;;5036460;28;20370;-82
2023/12/27 04:24:43;;;;;;;7.88;3.60;;;-0.50;99.90;;;;;;5052342;28;20136;-83
2023/12/27 04:27:09;;;;;;;7.75;3.83;;;-0.50;99.90;;;;;;5053059;28;20028;-83
2023/12/27 04:29:35;;;;;;;4.68;3.15;;;-0.50;99.90;;;;;;5053627;28;20032;-83
2023/12/27 04:32:00;;;;;;;5.63;3.85;;;-0.50;99.90;;;;;;5035699;28;20087;-83
2023/12/27 04:34:26;;;;;;;6.45;4.03;;;-0.50;99.90;;;;;;5053222;28;20029;-82
2023/12/27 04:36:52;;;;;;;6.90;4.00;;;-0.50;99.90;;;;;;5019704;28;20056;-82
2023/12/27 04:39:17;;;;;;;5.90;3.70;;;-0.50;99.90;;;;;;5019828;28;20029;-83
2023/12/27 04:41:43;;;;;;;6.07;3.15;;;-0.50;99.90;;;;;;5036537;28;20032;-82
2023/12/27 04:44:09;;;;;;;7.07;3.10;;;-0.60;99.90;;;;;;5053056;28;20021;-83
2023/12/27 04:46:38;;;;;;;6.28;3.42;;;-0.50;99.90;;;;;;5019024;28;20115;-83
2023/12/27 04:49:04;;;;;;;5.93;3.35;;;-0.50;99.90;;;;;;5051470;28;20029;-83
2023/12/27 04:51:31;;;;;;;7.57;3.53;;;-0.60;99.90;;;;;;5052692;28;20037;-83
2023/12/27 04:53:59;;;;;;;6.45;3.45;;;-0.60;99.90;;;;;;5052780;28;20025;-83
2023/12/27 04:56:28;;;;;;;6.22;3.70;;;-0.60;99.90;;;;;;5052578;28;20477;-84
2023/12/27 04:58:57;;;;;;;7.70;4.80;;;-0.70;99.90;;;;;;5068362;28;20025;-83
2023/12/27 05:01:36;;;;;;;8.50;4.95;;;-0.70;99.90;;;;;;5069145;28;20078;-83
2023/12/27 05:04:03;;;;;;;9.43;5.55;;;-0.70;99.90;;;;;;5053796;28;20032;-83
2023/12/27 05:06:34;;;;;;;8.75;5.25;;;-0.70;99.90;;;;;;5035679;28;20485;-83
2023/12/27 05:09:04;;;;;;;;;;;-0.70;99.90;;;;;;5036502;28;20477;-83
2023/12/27 05:11:35;;;;;;;5.63;3.53;;;-0.70;99.90;;;;;;5052768;28;19905;-83
2023/12/27 05:14:01;;;;;;;7.10;3.50;;;-0.70;99.90;;;;;;5053354;28;20037;-83
2023/12/27 05:16:29;;;;;;;6.38;3.65;;;-0.70;99.90;;;;;;5051883;28;20282;-83
2023/12/27 05:18:55;;;;;;;7.40;3.88;;;-0.70;99.90;;;;;;5018494;28;20035;-83
2023/12/27 05:21:22;;;;;;;7.50;3.97;;;-0.80;99.90;;;;;;5035093;28;20362;-83
2023/12/27 05:23:48;;;;;;;8.57;5.40;;;-0.80;99.90;;;;;;5035800;28;20359;-83
2023/12/27 05:26:14;;;;;;;8.80;5.75;;;-0.80;99.90;;;;;;5019401;28;20083;-82
2023/12/27 05:28:40;;;;;;;9.25;5.60;;;-0.80;99.90;;;;;;5051777;28;20075;-84
2023/12/27 05:31:08;;;;;;;8.68;5.47;;;-0.90;99.90;;;;;;5051785;28;20033;-84
2023/12/27 05:33:35;;;;;;;7.20;4.60;;;-0.90;99.90;;;;;;5067401;28;20032;-84
2023/12/27 05:36:02;;;;;;;9.40;5.15;;;-0.80;99.90;;;;;;5018376;28;20037;-84
2023/12/27 05:38:28;;;;;;;7.65;3.90;;;-0.80;99.90;;;;;;5050883;28;20075;-85
2023/12/27 05:40:58;;;;;;;5.50;3.30;;;-0.90;99.90;;;;;;5034853;28;20028;-85
2023/12/27 05:43:24;;;;;;;6.30;3.80;;;-0.80;99.90;;;;;;5050751;28;20393;-84
2023/12/27 05:45:50;;;;;;;5.47;3.10;;;-0.90;99.90;;;;;;5053022;28;20037;-84
2023/12/27 05:48:16;;;;;;;5.57;2.88;;;-1.00;99.90;;;;;;5051340;28;20436;-84
2023/12/27 05:50:42;;;;;;;6.32;3.20;;;-1.10;99.90;;;;;;5051524;28;20031;-84
2023/12/27 05:53:17;;;;;;;5.22;3.03;;;-1.10;99.90;;;;;;5051766;28;20043;-85
2023/12/27 05:55:46;;;;;;;6.07;2.92;;;-1.10;99.90;;;;;;5051125;28;20615;-84
2023/12/27 05:58:12;;;;;;;5.63;2.40;;;-1.20;99.90;;;;;;5052383;28;20041;-85
2023/12/27 06:00:39;;;;;;;4.20;2.40;;;-1.20;99.90;;;;;;5051259;28;20504;-83
2023/12/27 06:03:08;;;;;;;4.68;2.90;;;-1.20;99.90;;;;;;5053017;28;20536;-84
2023/12/27 06:05:36;;;;;;;6.43;3.33;;;-1.20;99.90;;;;;;5051653;28;20037;-84
2023/12/27 06:08:03;;;;;;;6.80;3.63;;;-1.10;99.90;;;;;;5051586;28;20121;-83
2023/12/27 06:10:30;;;;;;;5.72;3.75;;;-1.10;99.90;;;;;;5051103;28;20078;-83
2023/12/27 06:12:57;;;;;;;7.15;4.15;;;-1.10;99.90;;;;;;5050876;28;20025;-83
2023/12/27 06:15:23;;;;;;;5.82;3.75;;;-1.10;99.90;;;;;;5050506;28;20029;-84
2023/12/27 06:17:49;;;;;;;6.32;3.38;;;-1.10;99.90;;;;;;5051501;28;20021;-84
2023/12/27 06:20:17;;;;;;;5.00;3.25;;;-1.10;99.90;;;;;;5035102;28;20025;-83
2023/12/27 06:22:43;;;;;;;7.38;4.10;;;-1.10;99.90;;;;;;5035234;28;20029;-80
2023/12/27 06:25:08;;;;;;;28.10;13.25;;;-1.10;99.90;;;;;;5032542;28;20132;-81
2023/12/27 06:27:34;;;;;;;35.00;17.02;;;-1.10;99.90;;;;;;5050065;28;20021;-81
2023/12/27 06:30:00;;;;;;;29.42;14.30;;;-1.10;99.90;;;;;;5036452;28;20397;-80
2023/12/27 06:32:26;;;;;;;22.95;12.20;;;-1.10;99.90;;;;;;5036220;28;20036;-81
2023/12/27 06:34:52;;;;;;;27.60;13.25;;;-1.20;99.90;;;;;;5052908;28;20033;-80
2023/12/27 06:37:18;;;;;;;23.38;12.15;;;-1.20;99.90;;;;;;5053522;28;20021;-80
2023/12/27 06:39:44;;;;;;;21.02;10.80;;;-1.20;99.90;;;;;;5036038;28;20029;-81
2023/12/27 06:42:10;;;;;;;24.77;10.65;;;-1.20;99.90;;;;;;5036251;28;20124;-80
2023/12/27 06:44:36;;;;;;;27.25;13.38;;;-1.20;99.90;;;;;;5052208;28;20036;-80
2023/12/27 06:47:02;;;;;;;22.27;10.98;;;-1.30;99.90;;;;;;5052041;28;20021;-80
2023/12/27 06:49:28;;;;;;;15.63;7.97;;;-1.30;99.90;;;;;;5052348;28;20043;-81
2023/12/27 06:51:54;;;;;;;8.18;4.90;;;-1.30;99.90;;;;;;5036080;28;20056;-80
2023/12/27 06:54:20;;;;;;;10.25;5.20;;;-1.40;99.90;;;;;;5036528;28;20096;-81
2023/12/27 06:56:45;;;;;;;9.13;6.28;;;-1.50;99.90;;;;;;5055043;28;20041;-80
2023/12/27 06:59:11;;;;;;;9.32;4.93;;;-1.60;99.90;;;;;;5071856;28;20021;-80
2023/12/27 07:01:37;;;;;;;7.72;5.22;;;-1.70;99.90;;;;;;5038216;28;20025;-80
2023/12/27 07:04:03;;;;;;;9.70;5.93;;;-1.70;99.90;;;;;;5036863;28;20029;-80
2023/12/27 07:06:28;;;;;;;8.25;5.47;;;-1.70;99.90;;;;;;5054878;28;20064;-81
2023/12/27 07:08:54;;;;;;;9.18;5.90;;;-1.70;99.90;;;;;;5055897;28;20056;-81
2023/12/27 07:11:20;;;;;;;11.98;6.03;;;-1.70;99.90;;;;;;5056620;28;20029;-81
2023/12/27 07:13:47;;;;;;;10.38;5.93;;;-1.70;99.90;;;;;;5057249;28;20116;-81
2023/12/27 07:16:13;;;;;;;7.32;4.90;;;-1.70;99.90;;;;;;5052969;28;20036;-80
2023/12/27 07:18:42;;;;;;;7.88;4.03;;;-1.60;99.90;;;;;;5054857;28;20047;-80
2023/12/27 07:21:08;;;;;;;6.75;3.97;;;-1.60;99.90;;;;;;5055024;28;20025;-80
2023/12/27 07:23:34;;;;;;;6.70;3.67;;;-1.60;99.90;;;;;;5056009;28;20028;-80
2023/12/27 07:25:59;;;;;;;5.55;3.13;;;-1.60;99.90;;;;;;5038161;28;20529;-80
2023/12/27 07:28:26;;;;;;;5.65;3.28;;;-1.60;99.90;;;;;;5039658;28;20036;-81
2023/12/27 07:30:52;;;;;;;7.70;3.83;;;-1.60;99.90;;;;;;5056603;28;20037;-81
2023/12/27 07:33:18;;;;;;;10.23;5.13;;;-1.60;99.90;;;;;;5056067;28;20029;-80
2023/12/27 07:35:46;;;;;;;11.68;5.28;;;-1.70;99.90;;;;;;5056575;28;20031;-80
2023/12/27 07:38:12;;;;;;;10.52;5.85;;;-1.70;99.90;;;;;;5055665;28;20025;-80
2023/12/27 07:40:38;;;;;;;17.15;8.70;;;-1.70;99.90;;;;;;5054014;28;20021;-80
2023/12/27 07:43:05;;;;;;;13.98;6.95;;;-1.60;99.90;;;;;;5054168;28;20029;-81
2023/12/27 07:45:31;;;;;;;14.02;7.32;;;-1.60;99.90;;;;;;5055755;28;20025;-81
2023/12/27 07:47:57;;;;;;;17.83;8.02;;;-1.60;99.90;;;;;;5037839;28;20029;-80
2023/12/27 07:50:22;;;;;;;14.20;7.53;;;-1.60;99.90;;;;;;5034558;28;20564;-81
2023/12/27 07:52:48;;;;;;;12.48;7.07;;;-1.50;99.90;;;;;;5018101;28;20029;-80
2023/12/27 07:55:14;;;;;;;11.63;6.50;;;-1.50;99.90;;;;;;5066835;28;20039;-80
2023/12/27 07:57:41;;;;;;;11.65;5.82;;;-1.50;99.90;;;;;;5054971;28;20029;-80
2023/12/27 08:00:08;;;;;;;78.60;35.80;;;-1.50;99.90;;;;;;5055125;28;20025;-80
2023/12/27 08:02:34;;;;;;;57.80;29.42;;;-1.50;99.90;;;;;;5048246;28;20572;-80
2023/12/27 08:04:59;;;;;;;28.52;15.07;;;-1.50;99.90;;;;;;5042513;28;20025;-80
2023/12/27 08:07:25;;;;;;;14.80;8.25;;;-1.60;99.90;;;;;;5033606;28;20553;-80
2023/12/27 08:09:51;;;;;;;11.95;6.65;;;-1.60;99.90;;;;;;5052317;28;20024;-80
2023/12/27 08:12:16;;;;;;;11.80;5.75;;;-1.60;99.90;;;;;;5049710;28;20061;-80
2023/12/27 08:14:43;;;;;;;10.80;5.43;;;-1.60;99.90;;;;;;5059281;28;20029;-81
2023/12/27 08:17:09;;;;;;;9.88;5.53;;;-1.50;99.90;;;;;;5043685;28;20025;-79
2023/12/27 08:19:35;;;;;;;12.18;6.43;;;-1.50;99.90;;;;;;5044265;28;20116;-80
2023/12/27 08:22:01;;;;;;;11.20;6.57;;;-1.50;99.90;;;;;;5053756;28;20113;-80
2023/12/27 08:24:26;;;;;;;13.07;6.32;;;-1.50;99.90;;;;;;5052605;28;20120;-81
2023/12/27 08:26:52;;;;;;;12.20;6.40;;;-1.40;99.90;;;;;;5054348;28;20025;-81
2023/12/27 08:29:18;;;;;;;9.32;5.80;;;-1.40;99.90;;;;;;5053965;28;20528;-81
2023/12/27 08:31:43;;;;;;;9.20;4.10;;;-1.40;99.90;;;;;;5062567;28;20400;-80
2023/12/27 08:34:09;;;;;;;6.47;3.17;;;-1.30;99.90;;;;;;5057206;28;20520;-81
2023/12/27 08:36:35;;;;;;;5.88;3.40;;;-1.30;99.90;;;;;;5053672;28;20036;-81
2023/12/27 08:39:00;;;;;;;8.65;4.32;;;-1.30;99.90;;;;;;5054036;28;20027;-80
2023/12/27 08:41:26;;;;;;;10.18;5.70;;;-1.30;99.90;;;;;;5038213;28;20036;-81
2023/12/27 08:43:53;;;;;;;14.35;6.90;;;-1.30;99.90;;;;;;5055273;28;20021;-81
2023/12/27 08:46:22;;;;;;;11.55;5.43;;;-1.20;99.90;;;;;;5041793;28;20053;-80
2023/12/27 08:48:48;;;;;;;11.30;6.43;;;-1.20;99.90;;;;;;5045680;28;20414;-79
2023/12/27 08:51:14;;;;;;;8.93;5.30;;;-1.20;99.90;;;;;;5052440;28;20140;-81
2023/12/27 08:53:39;;;;;;;7.57;4.32;;;-1.10;99.90;;;;;;5054864;28;20061;-81
2023/12/27 08:56:08;;;;;;;5.90;3.92;;;-1.00;99.90;;;;;;5054869;28;20090;-80
2023/12/27 08:58:36;;;;;;;8.63;5.55;;;-0.90;99.90;;;;;;5054739;28;20021;-80
2023/12/27 09:01:03;;;;;;;10.88;5.53;;;-0.90;99.90;;;;;;5060447;28;20437;-80
2023/12/27 09:03:28;;;;;;;7.32;5.13;;;-0.90;99.90;;;;;;5057152;28;20028;-81
2023/12/27 09:05:54;;;;;;;7.80;4.75;;;-0.80;99.90;;;;;;5060589;28;20036;-80
2023/12/27 09:08:20;;;;;;;9.82;4.63;;;-0.80;99.90;;;;;;5070150;28;20456;-80
2023/12/27 09:10:45;;;;;;;9.13;5.20;;;-0.70;99.90;;;;;;5055557;28;20347;-80
2023/12/27 09:13:11;;;;;;;9.30;4.30;;;-0.60;99.90;;;;;;5053687;28;20036;-81
2023/12/27 09:15:36;;;;;;;9.32;5.40;;;-0.60;99.90;;;;;;5036835;28;20078;-80
2023/12/27 09:18:03;;;;;;;8.70;4.78;;;-0.50;99.90;;;;;;5053800;28;20029;-80
2023/12/27 09:20:28;;;;;;;7.72;4.88;;;-0.40;99.90;;;;;;5053225;28;20037;-80
2023/12/27 09:22:54;;;;;;;9.50;5.38;;;-0.30;99.90;;;;;;5054755;28;20025;-80
2023/12/27 09:25:20;;;;;;;9.90;5.70;;;-0.30;99.90;;;;;;5054443;28;20033;-80
2023/12/27 09:27:46;;;;;;;11.02;6.20;;;-0.20;99.90;;;;;;5069856;28;20036;-80
2023/12/27 09:30:12;;;;;;;10.82;5.43;;;-0.20;99.90;;;;;;5054657;28;20044;-80
2023/12/27 09:32:39;;;;;;;7.90;4.80;;;-0.20;99.90;;;;;;5071371;28;20096;-80
2023/12/27 09:35:05;;;;;;;10.95;5.35;;;-0.10;99.90;;;;;;5057539;28;20549;-80
2023/12/27 09:37:31;;;;;;;10.98;5.00;;;-0.10;99.90;;;;;;5069889;28;20053;-80
2023/12/27 09:39:57;;;;;;;9.95;4.57;;;-0.10;99.90;;;;;;5070010;28;20029;-80
2023/12/27 09:42:23;;;;;;;9.20;4.70;;;-0.10;99.90;;;;;;5069520;28;20052;-80
2023/12/27 09:44:50;;;;;;;10.82;4.82;;;0.00;99.90;;;;;;5054071;28;20367;-79
2023/12/27 09:47:17;;;;;;;10.25;5.10;;;0.00;99.90;;;;;;5053944;28;20036;-80
2023/12/27 09:49:43;;;;;;;10.18;4.80;;;0.10;99.90;;;;;;5036187;28;20051;-80
2023/12/27 09:52:09;;;;;;;8.10;4.35;;;0.20;99.90;;;;;;5054210;28;20025;-80
2023/12/27 09:54:35;;;;;;;10.80;5.72;;;0.30;99.90;;;;;;5053621;28;20388;-80
2023/12/27 09:57:01;;;;;;;11.77;6.07;;;0.40;99.90;;;;;;5037381;28;20052;-80
2023/12/27 09:59:29;;;;;;;11.70;6.90;;;0.60;99.90;;;;;;5060740;28;20386;-80
2023/12/27 10:02:01;;;;;;;14.90;7.85;;;0.60;99.90;;;;;;5051417;28;20493;-79
2023/12/27 10:04:42;;;;;;;15.68;8.10;;;0.70;99.90;;;;;;5041828;28;20037;-80
2023/12/27 10:07:08;;;;;;;14.48;7.93;;;0.80;99.90;;;;;;5058406;28;20032;-80
2023/12/27 10:09:34;;;;;;;11.13;6.60;;;0.90;99.90;;;;;;5058546;28;20116;-80
2023/12/27 10:12:00;;;;;;;10.98;6.22;;;0.90;99.90;;;;;;5033118;28;20437;-80
2023/12/27 10:14:27;;;;;;;10.45;5.30;;;1.00;99.90;;;;;;5049705;28;20030;-80
2023/12/27 10:16:53;;;;;;;10.45;5.38;;;1.10;99.90;;;;;;5044399;28;20481;-79
2023/12/27 10:19:47;;;;;;;10.23;5.72;;;1.10;99.90;;;;;;5053050;28;20112;-80
2023/12/27 10:22:13;;;;;;;8.45;4.90;;;1.20;99.90;;;;;;5038392;28;20033;-80
2023/12/27 10:24:40;;;;;;;10.90;5.18;;;1.30;99.90;;;;;;5034086;28;20580;-80
2023/12/27 10:27:08;;;;;;;8.48;4.70;;;1.40;99.90;;;;;;5034377;28;20057;-80
2023/12/27 10:29:34;;;;;;;7.95;4.00;;;1.40;99.90;;;;;;5066533;28;20461;-80
2023/12/27 10:32:02;;;;;;;6.55;3.70;;;1.50;99.90;;;;;;5057627;28;20033;-80
2023/12/27 10:34:28;;;;;;;7.95;4.32;;;1.60;99.90;;;;;;5057272;28;20044;-80
2023/12/27 10:36:58;;;;;;;8.75;5.40;;;1.70;99.90;;;;;;5056457;28;20515;-80
2023/12/27 10:39:25;;;;;;;6.68;3.97;;;1.70;99.90;;;;;;5057830;28;20029;-80
2023/12/27 10:41:52;;;;;;;7.93;3.60;;;1.80;99.90;;;;;;5060352;28;20052;-80
2023/12/27 10:44:19;;;;;;;5.68;3.30;;;1.90;99.90;;;;;;5056737;28;20032;-80
2023/12/27 10:46:46;;;;;;;7.45;4.25;;;2.00;99.90;;;;;;5056450;28;20114;-79
2023/12/27 10:49:16;;;;;;;8.35;4.28;;;2.00;99.90;;;;;;5056137;28;20022;-80
2023/12/27 10:51:42;;;;;;;8.80;4.78;;;2.10;99.90;;;;;;5056663;28;20112;-80
2023/12/27 10:54:10;;;;;;;7.45;3.95;;;2.10;99.90;;;;;;5055830;28;20029;-80
2023/12/27 10:56:40;;;;;;;7.20;3.90;;;2.30;99.90;;;;;;5056681;28;20381;-80
2023/12/27 10:59:09;;;;;;;7.30;3.90;;;2.40;99.90;;;;;;5055753;28;20029;-80
2023/12/27 11:01:38;;;;;;;9.05;4.20;;;2.40;99.90;;;;;;5055140;28;20159;-80
2023/12/27 11:04:08;;;;;;;8.90;4.07;;;2.50;99.90;;;;;;5055317;28;20055;-80
2023/12/27 11:06:38;;;;;;;5.30;2.97;;;2.60;99.90;;;;;;5056632;28;20017;-80
2023/12/27 11:09:07;;;;;;;8.23;3.80;;;2.60;99.90;;;;;;5055844;28;20039;-80
2023/12/27 11:11:40;;;;;;;8.43;3.83;;;2.60;99.90;;;;;;5059363;28;20025;-80
2023/12/27 11:14:08;;;;;;;8.75;3.63;;;2.70;99.90;;;;;;5047184;28;20037;-79
2023/12/27 11:16:37;;;;;;;7.68;3.58;;;2.80;99.90;;;;;;5051028;28;20025;-80
2023/12/27 11:19:07;;;;;;;12.25;3.55;;;2.90;99.90;;;;;;5048638;28;20398;-80
2023/12/27 11:21:34;;;;;;;7.13;3.25;;;2.90;99.90;;;;;;5045121;28;20052;-79
2023/12/27 11:24:03;;;;;;;6.18;3.75;;;3.00;99.90;;;;;;5061433;28;20095;-80
2023/12/27 11:26:36;;;;;;;6.53;3.58;;;3.10;99.90;;;;;;5052520;28;20047;-79
2023/12/27 11:29:11;;;;;;;9.23;3.45;;;3.10;99.90;;;;;;5048262;28;20021;-79
2023/12/27 11:31:38;;;;;;;5.07;3.05;;;3.20;99.90;;;;;;5043710;28;20034;-79
2023/12/27 11:34:04;;;;;;;6.75;3.60;;;3.20;99.90;;;;;;5053630;28;20029;-80
2023/12/27 11:36:30;;;;;;;5.63;3.50;;;3.20;99.90;;;;;;5059136;28;20060;-79
2023/12/27 11:38:56;;;;;;;5.18;3.08;;;3.30;99.90;;;;;;5055514;28;20040;-80
2023/12/27 11:41:21;;;;;;;5.20;3.03;;;3.30;99.90;;;;;;5037254;28;20060;-80
2023/12/27 11:44:03;;;;;;;6.95;2.90;;;3.30;99.90;;;;;;5055597;28;20028;-79
2023/12/27 11:46:31;;;;;;;;;;;3.30;99.90;;;;;;5056417;28;20025;-80
2023/12/27 11:48:59;;;;;;;4.32;2.53;;;3.30;99.90;;;;;;5056224;28;19947;-80
2023/12/27 11:51:34;;;;;;;4.80;2.85;;;3.30;99.90;;;;;;5038286;28;20037;-80
2023/12/27 11:54:04;;;;;;;4.72;2.95;;;3.30;99.90;;;;;;5054073;28;20031;-79
2023/12/27 11:56:35;;;;;;;5.32;3.20;;;3.40;99.90;;;;;;5038265;28;20055;-80
2023/12/27 11:59:02;;;;;;;6.97;3.33;;;3.40;99.90;;;;;;5056136;28;20031;-80
2023/12/27 12:01:35;;;;;;;4.68;2.80;;;3.50;99.90;;;;;;5065653;28;20362;-80
2023/12/27 12:04:22;;;;;;;4.68;2.38;;;3.50;99.90;;;;;;5075869;28;20032;-80
2023/12/27 12:07:00;;;;;;;8.65;3.22;;;3.50;99.90;;;;;;5077185;28;20554;-80
2023/12/27 12:09:33;;;;;;;7.47;3.33;;;3.50;99.90;;;;;;5056477;28;20542;-80
2023/12/27 12:12:15;;;;;;;5.20;2.95;;;3.60;99.90;;;;;;5056403;28;20028;-80
2023/12/27 12:14:40;;;;;;;5.97;2.85;;;3.60;99.90;;;;;;5056159;28;20060;-80
2023/12/27 12:17:09;;;;;;;4.63;2.55;;;3.60;99.90;;;;;;5055806;28;20025;-80
2023/12/27 12:19:39;;;;;;;5.95;2.80;;;3.70;99.90;;;;;;5055210;28;20385;-80
2023/12/27 12:22:05;;;;;;;6.43;3.30;;;3.70;99.90;;;;;;5056180;28;20025;-79
2023/12/27 12:24:32;;;;;;;4.57;2.90;;;3.70;99.90;;;;;;5056207;28;20029;-80
2023/12/27 12:27:01;;;;;;;5.43;3.08;;;3.80;99.90;;;;;;5053549;28;20075;-79
2023/12/27 12:29:27;;;;;;;6.93;3.38;;;3.80;99.90;;;;;;5041467;28;20053;-80
2023/12/27 12:31:56;;;;;;;9.18;2.70;;;3.90;99.90;;;;;;5053334;28;20539;-79
2023/12/27 12:34:25;;;;;;;5.82;2.70;;;4.00;99.90;;;;;;5050659;28;20036;-79
2023/12/27 12:36:53;;;;;;;5.43;2.72;;;4.10;99.90;;;;;;5049556;28;20029;-80
2023/12/27 12:39:19;;;;;;;7.50;2.92;;;4.10;99.90;;;;;;5055512;28;20048;-80
2023/12/27 12:41:45;;;;;;;8.95;3.20;;;4.10;99.90;;;;;;5066760;28;20017;-80
2023/12/27 12:44:12;;;;;;;9.70;4.07;;;4.20;99.90;;;;;;5056568;28;20017;-81
2023/12/27 12:46:39;;;;;;;9.45;4.85;;;4.20;99.90;;;;;;5046726;28;20051;-80